createdAt,value
2023-02-24T00:04:22.009Z,99335.47
2023-02-24T00:09:27.401Z,99333.84
2023-02-24T00:14:30.682Z,99332.44
2023-02-24T00:19:35.252Z,99330.59
2023-02-24T00:24:37.306Z,99328.75
2023-02-24T00:29:40.796Z,99331.28
2023-02-24T00:34:43.233Z,99325.25
2023-02-24T00:39:45.018Z,99326.75
2023-02-24T00:44:47.845Z,99328.44
2023-02-24T00:49:50.374Z,99320.31
2023-02-24T00:54:52.017Z,99316.50
2023-02-24T00:59:53.547Z,99311.56
2023-02-24T01:04:55.052Z,99313.22
2023-02-24T01:09:57.552Z,99303.00
2023-02-24T01:14:59.459Z,99302.03
2023-02-24T01:20:16.352Z,99300.34
2023-02-24T01:25:20.270Z,99297.66
2023-02-24T01:30:21.883Z,99299.03
2023-02-24T01:35:25.578Z,99286.84
2023-02-24T01:40:27.580Z,99278.16
2023-02-24T01:45:29.665Z,99271.94
2023-02-24T01:50:35.597Z,99267.38
2023-02-24T01:55:40.903Z,99262.69
2023-02-24T02:00:46.936Z,99260.88
2023-02-24T02:05:49.480Z,99254.56
2023-02-24T02:10:58.620Z,99253.94
2023-02-24T02:16:13.829Z,99245.59
2023-02-24T02:21:32.969Z,99239.03
2023-02-24T02:26:35.710Z,99238.84
2023-02-24T02:31:51.069Z,99234.16
2023-02-24T02:36:57.035Z,99227.75
2023-02-24T02:42:14.941Z,99226.19
2023-02-24T02:47:18.577Z,99225.34
2023-02-24T02:52:27.092Z,99227.41
2023-02-24T02:57:30.612Z,99218.81
2023-02-24T03:02:38.298Z,99216.06
2023-02-24T03:07:42.890Z,99211.78
2023-02-24T03:12:47.469Z,99212.78
2023-02-24T03:17:55.659Z,99225.97
2023-02-24T03:23:07.325Z,99228.69
2023-02-24T03:28:16.479Z,99222.16
2023-02-24T03:33:23.843Z,99224.22
2023-02-24T03:38:25.342Z,99216.72
2023-02-24T03:43:30.155Z,99217.56
2023-02-24T03:48:34.916Z,99208.69
2023-02-24T03:53:55.025Z,99217.53
2023-02-24T03:58:56.832Z,99213.31
2023-02-24T04:04:12.040Z,99221.41
2023-02-24T04:09:39.467Z,99217.22
2023-02-24T04:14:57.917Z,99201.13
2023-02-24T04:20:02.065Z,99201.31
2023-02-24T04:25:13.654Z,99192.84
2023-02-24T04:30:17.043Z,99176.28
2023-02-24T04:35:21.066Z,99167.34
2023-02-24T04:40:25.127Z,99168.13
2023-02-24T04:45:28.289Z,99154.06
2023-02-24T04:50:31.297Z,99150.66
2023-02-24T04:55:40.144Z,99144.28
2023-02-24T05:00:42.314Z,99140.97
2023-02-24T05:05:51.985Z,99135.59
2023-02-24T05:10:54.077Z,99134.94
2023-02-24T05:15:58.191Z,99131.56
2023-02-24T05:21:22.805Z,99126.16
2023-02-24T05:26:25.667Z,99121.50
2023-02-24T05:31:28.868Z,99123.91
2023-02-24T05:36:32.225Z,99131.72
2023-02-24T05:41:38.635Z,99133.13
2023-02-24T05:46:41.297Z,99129.31
2023-02-24T05:51:54.695Z,99127.91
2023-02-24T05:57:00.571Z,99135.72
2023-02-24T06:02:09.181Z,99135.75
2023-02-24T06:07:22.094Z,99129.91
2023-02-24T06:12:25.686Z,99132.56
2023-02-24T06:17:27.942Z,99138.50
2023-02-24T06:22:29.518Z,99135.56
2023-02-24T06:27:31.034Z,99142.63
2023-02-24T06:32:32.668Z,99138.41
2023-02-24T06:37:35.820Z,99148.19
2023-02-24T06:42:39.251Z,99148.34
2023-02-24T06:47:42.817Z,99145.84
2023-02-24T06:52:45.989Z,99139.53
2023-02-24T06:57:50.056Z,99133.00
2023-02-24T07:02:51.561Z,99144.84
2023-02-24T07:07:53.104Z,99140.63
2023-02-24T07:12:54.737Z,99142.63
2023-02-24T07:17:56.317Z,99141.00
2023-02-24T07:22:58.794Z,99132.41
2023-02-24T07:28:03.775Z,99132.16
2023-02-24T07:33:07.958Z,99123.72
2023-02-24T07:38:09.632Z,99126.66
2023-02-24T07:43:11.130Z,99124.19
2023-02-24T07:48:14.583Z,99112.91
2023-02-24T07:53:16.527Z,99114.72
2023-02-24T07:58:18.622Z,99109.56
2023-02-24T08:03:20.232Z,99100.91
2023-02-24T08:08:25.622Z,99088.16
2023-02-24T08:13:31.549Z,99089.56
2023-02-24T08:18:37.338Z,99089.94
2023-02-24T08:23:58.630Z,99073.56
2023-02-24T08:29:00.134Z,99066.66
2023-02-24T08:34:01.699Z,99055.81
2023-02-24T08:39:03.879Z,99050.50
2023-02-24T08:44:05.374Z,99052.84
2023-02-24T08:49:10.894Z,99047.69
2023-02-24T08:54:35.300Z,99044.88
2023-02-24T09:00:06.672Z,99029.03
2023-02-24T09:05:14.594Z,99020.66
2023-02-24T09:10:19.604Z,99010.34
2023-02-24T09:15:26.315Z,98997.97
2023-02-24T09:20:27.864Z,98997.66
2023-02-24T09:25:49.353Z,98987.41
2023-02-24T09:30:55.434Z,98971.91
2023-02-24T09:36:04.706Z,98962.72
2023-02-24T09:41:56.218Z,98955.34
2023-02-24T09:47:08.775Z,98943.19
2023-02-24T09:52:19.179Z,98942.63
2023-02-24T09:57:25.426Z,98928.75
2023-02-24T10:02:28.272Z,98925.97
2023-02-24T10:07:40.495Z,98918.72
2023-02-24T10:12:42.380Z,98903.91
2023-02-24T10:17:47.333Z,98896.09
2023-02-24T10:22:55.148Z,98878.28
2023-02-24T10:27:59.414Z,98865.56
2023-02-24T10:33:05.413Z,98855.16
2023-02-24T10:38:07.025Z,98848.63
2023-02-24T10:43:10.600Z,98833.19
2023-02-24T10:48:40.614Z,98824.06
2023-02-24T10:53:46.318Z,98809.72
2023-02-24T10:58:50.672Z,98802.53
2023-02-24T11:04:01.694Z,98805.22
2023-02-24T11:09:19.410Z,98786.66
2023-02-24T11:14:39.693Z,98770.34
2023-02-24T11:19:47.698Z,98753.38
2023-02-24T11:24:50.439Z,98735.97
2023-02-24T11:30:06.308Z,98732.47
2023-02-24T11:35:12.813Z,98718.22
2023-02-24T11:40:23.843Z,98707.47
2023-02-24T11:45:43.429Z,98699.31
2023-02-24T11:50:47.217Z,98684.22
2023-02-24T11:55:51.590Z,98673.72
2023-02-24T12:00:59.379Z,98662.09
2023-02-24T12:06:12.870Z,98662.50
2023-02-24T12:11:25.970Z,98648.63
2023-02-24T12:16:33.741Z,98632.69
2023-02-24T12:21:44.516Z,98617.94
2023-02-24T12:27:07.959Z,98616.22
2023-02-24T12:32:18.854Z,98605.69
2023-02-24T12:37:38.735Z,98613.63
2023-02-24T12:42:40.363Z,98606.25
2023-02-24T12:47:50.934Z,98595.69
2023-02-24T12:52:55.382Z,98579.88
2023-02-24T12:58:04.910Z,98561.59
2023-02-24T13:03:19.848Z,98555.72
2023-02-24T13:08:32.888Z,98545.28
2023-02-24T13:13:42.901Z,98534.47
2023-02-24T13:18:45.368Z,98530.81
2023-02-24T13:23:57.817Z,98509.53
2023-02-24T13:29:09.327Z,98501.25
2023-02-24T13:34:28.898Z,98495.53
2023-02-24T13:45:58.079Z,98486.00
2023-02-24T13:51:06.027Z,98465.03
2023-02-24T13:56:10.884Z,98465.09
2023-02-24T14:01:14.270Z,98458.13
2023-02-24T14:06:26.491Z,98452.63
2023-02-24T14:11:33.466Z,98446.97
2023-02-24T14:16:53.703Z,98453.13
2023-02-24T14:21:59.133Z,98453.25
2023-02-24T14:27:04.733Z,98456.28
2023-02-24T14:32:09.184Z,98443.97
2023-02-24T14:37:16.506Z,98436.38
2023-02-24T14:42:19.427Z,98426.84
2023-02-24T14:47:22.633Z,98415.56
2023-02-24T14:52:33.387Z,98411.38
2023-02-24T14:57:40.538Z,98401.69
2023-02-24T15:02:46.314Z,98394.00
2023-02-24T15:07:51.958Z,98392.41
2023-02-24T15:13:00.966Z,98377.72
2023-02-24T15:18:08.596Z,98367.63
2023-02-24T15:23:36.694Z,98360.28
2023-02-24T15:28:38.432Z,98358.66
2023-02-24T15:33:41.615Z,98346.09
2023-02-24T15:38:44.239Z,98352.84
2023-02-24T15:43:53.176Z,98347.69
2023-02-24T15:48:56.426Z,98334.78
2023-02-24T15:54:01.084Z,98340.09
2023-02-24T15:59:03.376Z,98345.72
2023-02-24T16:04:05.756Z,98344.38
2023-02-24T16:09:08.082Z,98340.28
2023-02-24T16:14:14.066Z,98334.50
2023-02-24T16:19:15.952Z,98334.53
2023-02-24T16:24:17.503Z,98325.19
2023-02-24T16:29:19.249Z,98319.47
2023-02-24T16:34:20.810Z,98327.34
2023-02-24T16:39:23.787Z,98326.75
2023-02-24T16:44:25.327Z,98321.28
2023-02-24T16:49:26.912Z,98320.75
2023-02-24T16:54:29.350Z,98322.59
2023-02-24T16:59:31.069Z,98322.44
2023-02-24T17:04:32.637Z,98315.66
2023-02-24T17:09:34.255Z,98314.53
2023-02-24T17:14:35.796Z,98300.44
2023-02-24T17:19:37.799Z,98302.34
2023-02-24T17:24:42.372Z,98297.59
2023-02-24T17:29:43.880Z,98297.75
2023-02-24T17:34:45.388Z,98287.97
2023-02-24T17:39:46.920Z,98288.28
2023-02-24T17:44:51.207Z,98281.91
2023-02-24T17:49:52.778Z,98281.63
2023-02-24T17:54:54.535Z,98267.41
2023-02-24T17:59:56.453Z,98262.56
2023-02-24T18:04:58.127Z,98260.84
2023-02-24T18:09:59.851Z,98256.50
2023-02-24T18:15:11.136Z,98246.31
2023-02-24T18:20:15.318Z,98249.56
2023-02-24T18:25:16.961Z,98243.72
2023-02-24T18:30:18.699Z,98236.84
2023-02-24T18:35:21.951Z,98231.31
2023-02-24T18:40:31.001Z,98235.94
2023-02-24T18:45:35.144Z,98230.63
2023-02-24T18:50:36.943Z,98223.06
2023-02-24T18:55:40.876Z,98220.59
2023-02-24T19:00:43.489Z,98223.75
2023-02-24T19:05:45.360Z,98214.38
2023-02-24T19:10:49.979Z,98210.09
2023-02-24T19:15:52.828Z,98202.50
2023-02-24T19:20:54.553Z,98194.66
2023-02-24T19:25:59.331Z,98192.22
2023-02-24T19:31:00.957Z,98196.13
2023-02-24T19:36:02.731Z,98186.03
2023-02-24T19:41:29.416Z,98185.72
2023-02-24T19:46:33.009Z,98171.78
2023-02-24T19:51:35.003Z,98171.28
2023-02-24T19:56:37.199Z,98160.88
2023-02-24T20:01:40.108Z,98160.06
2023-02-24T20:06:45.182Z,98163.28
2023-02-24T20:11:48.001Z,98162.03
2023-02-24T20:16:49.880Z,98156.06
2023-02-24T20:21:51.702Z,98140.31
2023-02-24T20:26:53.292Z,98137.63
2023-02-24T20:31:54.906Z,98133.81
2023-02-24T20:36:56.670Z,98127.41
2023-02-24T20:41:58.302Z,98131.50
2023-02-24T20:47:00.686Z,98135.00
2023-02-24T20:52:02.179Z,98133.25
2023-02-24T20:57:03.782Z,98107.81
2023-02-24T21:02:05.455Z,98116.53
2023-02-24T21:07:08.214Z,98113.00
2023-02-24T21:12:09.858Z,98122.56
2023-02-24T21:17:12.099Z,98094.22
2023-02-24T21:22:13.646Z,98085.59
2023-02-24T21:27:15.236Z,98075.44
2023-02-24T21:32:17.058Z,98088.41
2023-02-24T21:37:18.673Z,98081.94
2023-02-24T21:42:22.202Z,98080.69
2023-02-24T21:47:23.762Z,98076.94
2023-02-24T21:52:25.254Z,98071.91
2023-02-24T21:57:26.775Z,98077.03
2023-02-24T22:02:28.250Z,98062.13
2023-02-24T22:07:29.730Z,98062.03
2023-02-24T22:12:31.227Z,98061.28
2023-02-24T22:17:33.823Z,98039.56
2023-02-24T22:22:38.922Z,98030.13
2023-02-24T22:27:40.464Z,98016.22
2023-02-24T22:32:42.066Z,98032.78
2023-02-24T22:37:43.798Z,98034.47
2023-02-24T22:42:45.362Z,98025.09
2023-02-24T22:47:47.050Z,98024.06
2023-02-24T22:52:49.187Z,98026.03
2023-02-24T22:57:50.675Z,98017.19
2023-02-24T23:02:52.151Z,98016.44
2023-02-24T23:07:53.646Z,98017.44
2023-02-24T23:12:55.442Z,98021.06
2023-02-24T23:17:56.940Z,98021.09
2023-02-24T23:22:58.654Z,98017.59
2023-02-24T23:28:00.203Z,98021.00
2023-02-24T23:33:03.037Z,98028.88
2023-02-24T23:38:04.513Z,98030.56
2023-02-24T23:43:06.153Z,98037.19
2023-02-24T23:48:12.158Z,98037.69
2023-02-24T23:53:13.742Z,98037.06
2023-02-24T23:58:16.612Z,98034.53
